Time;durP1;ratioP1;P1;durP2;ratioP2;P2;SDS_P1;SDS_P2;PMS_P1;PMS_P2;Temp;Humidity;BMP_temperature;BMP_pressure;BME280_temperature;BME280_humidity;BME280_pressure;Samples;Min_cycle;Max_cycle;Signal;HPM_P1;HPM_P2
2022/02/11 00:06:01;;;;;;;10.65;7.55;;;10.50;99.90;;;;;;4971651;28;20042;-61
2022/02/11 00:08:26;;;;;;;9.45;6.60;;;10.30;99.90;;;;;;4979427;28;20125;-60
2022/02/11 00:10:53;;;;;;;16.48;7.72;;;10.30;99.90;;;;;;4962316;28;20050;-60
2022/02/11 00:13:21;;;;;;;11.10;5.88;;;10.20;99.90;;;;;;4972175;28;20047;-61
2022/02/11 00:15:52;;;;;;;12.13;7.25;;;10.20;99.90;;;;;;4955408;28;20073;-61
2022/02/11 00:18:21;;;;;;;9.50;6.18;;;10.20;99.90;;;;;;4971573;28;20047;-60
2022/02/11 00:20:50;;;;;;;10.13;6.38;;;10.30;99.90;;;;;;4956716;28;20059;-61
2022/02/11 00:23:20;;;;;;;9.38;6.68;;;10.20;99.90;;;;;;4972159;28;20047;-60
2022/02/11 00:25:57;;;;;;;12.73;8.63;;;10.30;99.90;;;;;;4971276;28;20138;-60
2022/02/11 00:33:41;;;;;;;15.05;9.65;;;10.20;99.90;;;;;;4971396;28;20398;-61
2022/02/11 00:36:10;;;;;;;14.10;7.63;;;10.20;99.90;;;;;;4972410;28;20047;-61
2022/02/11 01:05:56;;;;;;;16.55;7.35;;;8.30;99.90;;;;;;4971627;28;20047;-60
2022/02/11 01:08:27;;;;;;;11.93;7.20;;;8.40;99.90;;;;;;4971522;28;20047;-60
2022/02/11 01:11:02;;;;;;;13.95;9.25;;;8.40;99.90;;;;;;4971883;28;20042;-60
2022/02/11 01:13:35;;;;;;;12.10;9.38;;;8.40;99.90;;;;;;4971911;28;20065;-61
2022/02/11 01:16:09;;;;;;;13.40;7.80;;;8.30;99.90;;;;;;4971246;28;20045;-61
2022/02/11 01:18:51;;;;;;;10.00;7.13;;;8.20;99.90;;;;;;4986875;28;20066;-60
2022/02/11 01:21:27;;;;;;;9.60;6.78;;;8.10;99.90;;;;;;4971271;28;20097;-61
2022/02/11 01:24:11;;;;;;;14.07;7.40;;;8.00;99.90;;;;;;4971369;28;20039;-60
2022/02/11 01:30:15;;;;;;;14.38;7.47;;;8.00;99.90;;;;;;4969223;28;20138;-60
2022/02/11 01:32:44;;;;;;;12.48;7.53;;;8.10;99.90;;;;;;4971633;28;20506;-60
2022/02/11 01:41:30;;;;;;;13.48;7.32;;;8.40;99.90;;;;;;4972081;28;20080;-60
2022/02/11 01:49:50;;;;;;;10.57;6.97;;;8.40;99.90;;;;;;4975488;28;20039;-60
2022/02/11 01:52:47;;;;;;;8.75;6.63;;;8.40;99.90;;;;;;4973675;28;20045;-60
2022/02/11 02:14:26;;;;;;;11.65;6.25;;;8.70;99.90;;;;;;4958141;28;20040;-60
2022/02/11 02:24:46;;;;;;;14.00;8.18;;;8.90;99.90;;;;;;4957916;28;20039;-60
2022/02/11 02:57:39;;;;;;;13.32;7.07;;;7.80;99.90;;;;;;4957219;28;20075;-60
2022/02/11 04:53:29;;;;;;;8.73;4.50;;;8.70;99.90;;;;;;4954575;29;20052;-60
2022/02/11 04:55:39;;;;;;;5.22;3.58;;;8.60;99.90;;;;;;4955293;29;20070;-60
2022/02/11 05:00:53;;;;;;;5.93;3.88;;;8.60;99.90;;;;;;4955157;28;20399;-60
2022/02/11 05:03:20;;;;;;;6.72;4.43;;;8.60;99.90;;;;;;4954555;28;20051;-60
2022/02/11 05:05:51;;;;;;;6.45;4.40;;;8.60;99.90;;;;;;4953987;29;20071;-60
2022/02/11 05:08:26;;;;;;;9.73;4.20;;;8.70;99.90;;;;;;4922829;29;20086;-60
2022/02/11 05:10:55;;;;;;;6.68;3.95;;;8.60;99.90;;;;;;4954097;29;20043;-60
2022/02/11 05:13:23;;;;;;;10.18;5.00;;;8.70;99.90;;;;;;4955041;28;20058;-60
2022/02/11 05:15:51;;;;;;;8.75;4.78;;;8.60;99.90;;;;;;4954021;29;20051;-60
2022/02/11 05:18:18;;;;;;;8.02;4.72;;;8.50;99.90;;;;;;4955535;28;20074;-60
2022/02/11 05:20:46;;;;;;;7.90;4.35;;;8.50;99.90;;;;;;4957843;29;20039;-60
2022/02/11 05:23:15;;;;;;;7.40;4.43;;;8.40;99.90;;;;;;4958104;29;20046;-60
2022/02/11 05:25:44;;;;;;;10.93;5.63;;;8.40;99.90;;;;;;4957771;28;20087;-60
2022/02/11 05:28:12;;;;;;;10.10;4.38;;;8.40;99.90;;;;;;4957948;29;20047;-60
2022/02/11 05:30:41;;;;;;;7.35;3.65;;;8.40;99.90;;;;;;4959449;28;20066;-61
2022/02/11 05:33:10;;;;;;;11.07;3.88;;;8.40;99.90;;;;;;4977311;28;20093;-60
2022/02/11 05:35:38;;;;;;;5.38;3.38;;;8.40;99.90;;;;;;4975245;28;20043;-61
2022/02/11 05:38:06;;;;;;;6.40;3.40;;;8.50;99.90;;;;;;4975014;28;20047;-60
2022/02/11 05:40:34;;;;;;;9.30;3.38;;;8.50;99.90;;;;;;4973546;28;20093;-61
2022/02/11 05:43:02;;;;;;;7.93;3.40;;;8.50;99.90;;;;;;4976419;28;20062;-60
2022/02/11 05:45:30;;;;;;;8.57;4.32;;;8.60;99.90;;;;;;4974932;28;20467;-60
2022/02/11 05:47:57;;;;;;;9.10;4.50;;;8.60;99.90;;;;;;4974806;28;20458;-60
2022/02/11 05:50:25;;;;;;;6.80;3.63;;;8.60;99.90;;;;;;4956176;28;20098;-62
2022/02/11 05:52:54;;;;;;;6.63;4.28;;;8.60;99.90;;;;;;4975991;28;20043;-61
2022/02/11 05:55:21;;;;;;;7.28;4.15;;;8.70;99.90;;;;;;4973832;28;20055;-61
2022/02/11 05:57:49;;;;;;;5.63;3.45;;;8.80;99.90;;;;;;4964152;28;20500;-60
2022/02/11 06:00:18;;;;;;;7.40;4.28;;;8.80;99.90;;;;;;4976154;28;20105;-60
2022/02/11 06:02:45;;;;;;;6.57;3.45;;;8.90;99.90;;;;;;4975836;28;20042;-60
2022/02/11 06:05:16;;;;;;;5.70;3.42;;;8.90;99.90;;;;;;4959452;28;20549;-60
2022/02/11 06:07:44;;;;;;;8.93;4.20;;;8.90;99.90;;;;;;4957808;29;20044;-60
2022/02/11 06:10:13;;;;;;;9.73;3.97;;;9.00;99.90;;;;;;4958290;28;20130;-60
2022/02/11 06:12:41;;;;;;;5.25;2.83;;;9.00;99.90;;;;;;4940986;29;20047;-60
2022/02/11 06:15:09;;;;;;;4.90;2.67;;;9.10;99.90;;;;;;4973126;28;20573;-60
2022/02/11 06:17:38;;;;;;;5.63;2.95;;;9.20;99.90;;;;;;4956771;29;20086;-60
2022/02/11 06:20:09;;;;;;;5.72;3.00;;;9.40;99.90;;;;;;4925266;29;20484;-60
2022/02/11 06:22:37;;;;;;;5.20;3.35;;;9.50;99.90;;;;;;4956826;29;20047;-60
2022/02/11 06:25:05;;;;;;;5.53;2.75;;;9.90;99.90;;;;;;4957888;28;20035;-61
2022/02/11 06:27:33;;;;;;;6.40;3.42;;;10.40;99.90;;;;;;4958072;28;20047;-60
2022/02/11 06:30:00;;;;;;;5.95;2.95;;;10.70;99.90;;;;;;4957680;28;20039;-60
2022/02/11 06:32:28;;;;;;;5.60;3.30;;;11.10;99.90;;;;;;4957562;28;20058;-61
2022/02/11 06:34:57;;;;;;;4.15;2.60;;;11.40;99.90;;;;;;4956834;29;20051;-60
2022/02/11 06:37:24;;;;;;;5.13;2.63;;;11.60;99.90;;;;;;4940652;29;20109;-60
2022/02/11 06:39:52;;;;;;;4.20;2.95;;;11.90;99.90;;;;;;4956351;28;20074;-60
2022/02/11 06:42:20;;;;;;;7.03;3.70;;;12.10;99.90;;;;;;4956541;29;20372;-61
2022/02/11 06:44:47;;;;;;;5.78;3.60;;;12.20;99.90;;;;;;4956213;29;20383;-60
2022/02/11 06:47:18;;;;;;;5.20;2.60;;;12.50;99.90;;;;;;4957564;29;20486;-61
2022/02/11 06:49:53;;;;;;;4.45;2.85;;;12.80;99.90;;;;;;4956463;29;20134;-61
2022/02/11 06:52:22;;;;;;;5.85;2.60;;;13.10;99.90;;;;;;4957000;28;20051;-60
2022/02/11 06:54:54;;;;;;;4.25;3.20;;;13.60;99.90;;;;;;4956401;29;20039;-60
2022/02/11 06:57:27;;;;;;;4.05;2.33;;;14.10;99.90;;;;;;4924753;29;20040;-60
2022/02/11 06:59:59;;;;;;;;;;;14.50;99.90;;;;;;4940792;29;20067;-60
2022/02/11 07:02:43;;;;;;;4.95;2.80;;;14.90;99.90;;;;;;4943040;28;20017;-60
2022/02/11 07:05:28;;;;;;;4.05;2.85;;;15.40;99.90;;;;;;4956852;28;20121;-60
2022/02/11 07:07:57;;;;;;;5.32;3.10;;;15.70;99.90;;;;;;4956868;28;20513;-60
2022/02/11 07:10:26;;;;;;;5.20;3.40;;;16.10;99.90;;;;;;4956955;28;20047;-60
2022/02/11 07:12:53;;;;;;;5.65;3.75;;;16.40;99.90;;;;;;4939730;29;20051;-60
2022/02/11 07:15:21;;;;;;;6.40;3.97;;;16.50;99.90;;;;;;4957084;28;20470;-60
2022/02/11 07:17:48;;;;;;;6.25;3.75;;;16.50;99.90;;;;;;4955856;29;20055;-60
2022/02/11 07:20:16;;;;;;;19.00;13.70;;;16.30;99.90;;;;;;4956773;29;20129;-60
2022/02/11 07:22:44;;;;;;;16.42;9.43;;;16.10;99.90;;;;;;4956795;28;20039;-60
2022/02/11 07:25:13;;;;;;;7.45;5.15;;;16.00;99.90;;;;;;4956540;28;20074;-60
2022/02/11 07:27:41;;;;;;;7.53;5.60;;;15.90;99.90;;;;;;4955600;29;20043;-60
2022/02/11 07:30:24;;;;;;;11.32;6.07;;;15.90;99.90;;;;;;4956036;29;20139;-60
2022/02/11 07:32:52;;;;;;;7.25;4.90;;;15.80;99.90;;;;;;4956711;29;20042;-60
2022/02/11 07:35:21;;;;;;;6.85;5.13;;;15.80;99.90;;;;;;4956822;29;20094;-60
2022/02/11 07:37:50;;;;;;;6.95;4.32;;;15.90;99.90;;;;;;4939382;29;20051;-60
2022/02/11 07:40:18;;;;;;;6.25;4.63;;;16.00;99.90;;;;;;4971256;28;20083;-60
2022/02/11 07:42:47;;;;;;;4.30;3.33;;;16.00;99.90;;;;;;4956764;28;20047;-60
2022/02/11 07:45:16;;;;;;;9.07;4.13;;;16.30;99.90;;;;;;4956330;28;20390;-60
2022/02/11 07:47:43;;;;;;;10.02;3.67;;;16.40;99.90;;;;;;4955081;29;20106;-60
2022/02/11 07:50:11;;;;;;;5.10;3.20;;;16.50;99.90;;;;;;4954955;28;20039;-60
2022/02/11 07:52:39;;;;;;;5.43;4.03;;;16.10;99.90;;;;;;4956624;28;20043;-60
2022/02/11 07:55:07;;;;;;;5.57;3.00;;;15.80;99.90;;;;;;4955256;29;20498;-60
2022/02/11 07:57:34;;;;;;;6.25;4.38;;;15.40;99.90;;;;;;4939305;29;20062;-60
2022/02/11 08:00:04;;;;;;;5.32;4.00;;;15.30;99.90;;;;;;4956064;29;20055;-60
2022/02/11 08:02:38;;;;;;;3.87;3.40;;;15.30;99.90;;;;;;4956065;28;20090;-61
2022/02/11 08:05:07;;;;;;;5.07;3.13;;;15.00;99.90;;;;;;4923308;29;20145;-61
2022/02/11 08:07:35;;;;;;;6.05;3.50;;;14.50;99.90;;;;;;4955083;29;20039;-60
2022/02/11 08:10:03;;;;;;;5.38;3.60;;;14.60;99.90;;;;;;4954868;29;20118;-61
2022/02/11 08:12:34;;;;;;;5.28;3.92;;;14.70;99.90;;;;;;4954675;29;20051;-61
2022/02/11 08:15:03;;;;;;;8.75;5.13;;;14.80;99.90;;;;;;4954849;29;20039;-60
2022/02/11 08:17:31;;;;;;;6.20;4.47;;;14.80;99.90;;;;;;4955770;28;20134;-60
2022/02/11 08:19:59;;;;;;;4.88;3.50;;;14.90;99.90;;;;;;4954569;29;20043;-61
2022/02/11 08:22:27;;;;;;;5.28;2.95;;;14.90;99.90;;;;;;4955803;28;20051;-60
2022/02/11 08:24:54;;;;;;;8.38;4.15;;;14.70;99.90;;;;;;4954989;28;20057;-60
2022/02/11 08:27:23;;;;;;;17.90;10.10;;;14.80;99.90;;;;;;4954398;28;20039;-60
2022/02/11 08:29:50;;;;;;;9.93;4.70;;;15.00;99.90;;;;;;4954422;29;20043;-60
2022/02/11 08:32:19;;;;;;;6.85;4.47;;;14.90;99.90;;;;;;4955712;28;20047;-61
2022/02/11 08:34:47;;;;;;;7.55;4.97;;;14.80;99.90;;;;;;4955484;28;20399;-60
2022/02/11 08:37:15;;;;;;;9.55;6.63;;;14.80;99.90;;;;;;4955934;29;20050;-60
2022/02/11 08:39:42;;;;;;;11.55;6.93;;;14.70;99.90;;;;;;4955884;28;20102;-60
2022/02/11 08:42:10;;;;;;;8.68;5.28;;;14.70;99.90;;;;;;4954801;29;20050;-60
2022/02/11 08:44:38;;;;;;;8.38;4.53;;;14.80;99.90;;;;;;4955520;29;20087;-61
2022/02/11 08:47:05;;;;;;;10.45;7.75;;;15.10;99.90;;;;;;4955382;28;20046;-60
2022/02/11 08:49:33;;;;;;;5.82;4.45;;;15.30;99.90;;;;;;4954304;29;20386;-61
2022/02/11 08:52:01;;;;;;;5.53;3.50;;;15.50;99.90;;;;;;4955429;28;20071;-60
2022/02/11 08:54:28;;;;;;;6.78;3.85;;;15.60;99.90;;;;;;4958904;29;20457;-61
2022/02/11 08:56:56;;;;;;;8.55;5.35;;;15.70;99.90;;;;;;4959432;28;20134;-61
2022/02/11 08:59:24;;;;;;;11.05;5.05;;;15.80;99.90;;;;;;4959348;28;20129;-61
2022/02/11 09:01:51;;;;;;;5.32;3.92;;;15.90;99.90;;;;;;4959810;28;20087;-60
2022/02/11 09:04:19;;;;;;;5.93;3.20;;;16.00;99.90;;;;;;4958177;29;20051;-61
2022/02/11 09:06:47;;;;;;;5.70;3.85;;;15.90;99.80;;;;;;4958189;28;20047;-61
2022/02/11 09:09:16;;;;;;;6.10;3.50;;;15.80;98.90;;;;;;4959342;28;20063;-61
2022/02/11 09:11:44;;;;;;;8.27;3.42;;;15.90;99.00;;;;;;4958002;29;20066;-61
2022/02/11 09:14:11;;;;;;;5.85;3.80;;;16.00;99.30;;;;;;4958879;29;20078;-60
2022/02/11 09:16:39;;;;;;;12.40;4.03;;;16.10;99.50;;;;;;4959448;29;20395;-60
2022/02/11 09:19:09;;;;;;;4.80;3.30;;;16.30;99.70;;;;;;4959404;28;20082;-60
2022/02/11 09:21:38;;;;;;;8.60;4.47;;;16.40;99.10;;;;;;4959286;28;20050;-61
2022/02/11 09:24:06;;;;;;;6.55;3.63;;;16.40;98.40;;;;;;4959203;28;20554;-60
2022/02/11 09:26:33;;;;;;;6.20;3.70;;;16.50;98.60;;;;;;4957826;29;20051;-60
2022/02/11 09:29:05;;;;;;;4.43;3.58;;;16.80;98.50;;;;;;4941802;29;20123;-61
2022/02/11 09:31:32;;;;;;;8.15;3.60;;;17.10;97.90;;;;;;4958769;28;20043;-61
2022/02/11 09:34:04;;;;;;;7.28;3.72;;;17.00;97.20;;;;;;4964839;28;20043;-61
2022/02/11 09:36:34;;;;;;;5.93;3.72;;;17.30;97.20;;;;;;4976770;28;20039;-62
2022/02/11 09:39:07;;;;;;;10.55;5.18;;;17.30;96.80;;;;;;4975352;28;20126;-61
2022/02/11 09:41:36;;;;;;;8.25;4.97;;;17.40;97.10;;;;;;4975385;28;20039;-62
2022/02/11 09:44:05;;;;;;;5.97;3.63;;;17.30;96.80;;;;;;4975331;28;20062;-61
2022/02/11 09:46:36;;;;;;;5.22;3.28;;;17.30;96.70;;;;;;4975597;28;20481;-62
2022/02/11 09:49:04;;;;;;;6.63;3.90;;;17.20;96.50;;;;;;4976441;28;20093;-62
2022/02/11 09:51:31;;;;;;;6.35;3.47;;;17.20;96.70;;;;;;4974168;28;20125;-62
2022/02/11 09:53:58;;;;;;;7.10;3.67;;;17.30;96.10;;;;;;4973858;28;20445;-62
2022/02/11 09:56:26;;;;;;;5.28;3.28;;;17.30;95.80;;;;;;4975021;28;20158;-61
2022/02/11 09:59:04;;;;;;;4.75;3.65;;;17.20;95.80;;;;;;4964545;28;20031;-61
2022/02/11 10:01:32;;;;;;;4.63;3.03;;;17.10;96.20;;;;;;4967307;28;20102;-61
2022/02/11 10:04:31;;;;;;;5.85;3.30;;;17.30;95.90;;;;;;4967957;28;20382;-66
2022/02/11 10:07:00;;;;;;;6.20;3.97;;;17.20;95.70;;;;;;4963460;28;20065;-62
2022/02/11 10:09:28;;;;;;;6.88;3.50;;;17.40;96.10;;;;;;4974384;28;20404;-62
2022/02/11 10:11:56;;;;;;;4.95;2.70;;;17.50;95.60;;;;;;4973390;28;20089;-62
2022/02/11 10:14:34;;;;;;;4.55;2.67;;;17.60;95.50;;;;;;4974271;28;20050;-62
2022/02/11 10:17:11;;;;;;;6.55;3.75;;;17.80;95.00;;;;;;4965808;28;20043;-63
2022/02/11 10:19:42;;;;;;;4.97;3.00;;;17.50;95.40;;;;;;4968191;28;20046;-63
2022/02/11 10:22:16;;;;;;;4.22;2.72;;;17.70;95.30;;;;;;4972177;28;20133;-62
2022/02/11 10:24:46;;;;;;;4.28;2.60;;;17.80;95.00;;;;;;4974860;28;20150;-61
2022/02/11 10:27:29;;;;;;;5.15;2.38;;;17.70;94.30;;;;;;4958997;28;20043;-61
2022/02/11 10:30:03;;;;;;;5.55;3.55;;;17.50;94.40;;;;;;4969786;28;20042;-61
2022/02/11 10:32:47;;;;;;;5.15;2.97;;;17.40;94.40;;;;;;4967725;28;20122;-61
2022/02/11 10:35:24;;;;;;;6.20;2.80;;;17.40;93.50;;;;;;4970608;28;20053;-61
2022/02/11 10:38:11;;;;;;;7.03;3.13;;;17.30;93.10;;;;;;4972838;28;20078;-61
2022/02/11 10:40:40;;;;;;;3.90;3.00;;;17.40;93.60;;;;;;4971431;28;20043;-62
2022/02/11 10:43:18;;;;;;;5.97;2.78;;;17.50;93.40;;;;;;4975875;28;20461;-62
2022/02/11 10:45:46;;;;;;;11.93;5.07;;;17.40;93.40;;;;;;4970584;28;20090;-62
2022/02/11 10:48:19;;;;;;;5.97;3.55;;;17.30;93.50;;;;;;4952770;28;20157;-62
2022/02/11 10:50:55;;;;;;;4.55;2.92;;;17.40;93.00;;;;;;4962950;28;20039;-61
2022/02/11 10:53:30;;;;;;;;;;;17.40;93.00;;;;;;4959414;28;20049;-62
2022/02/11 10:56:04;;;;;;;6.35;3.20;;;17.40;91.50;;;;;;4969190;28;19925;-62
2022/02/11 10:58:32;;;;;;;4.78;2.60;;;17.30;91.90;;;;;;4973312;28;20058;-62
2022/02/11 11:01:05;;;;;;;5.18;2.42;;;17.20;91.60;;;;;;4971303;28;20058;-62
2022/02/11 11:03:34;;;;;;;5.30;2.53;;;17.30;89.70;;;;;;4935051;28;20077;-62
2022/02/11 11:06:05;;;;;;;4.22;2.20;;;17.30;90.80;;;;;;4968783;28;20069;-61
2022/02/11 11:08:38;;;;;;;4.60;2.80;;;17.20;90.90;;;;;;4972942;28;20047;-62
2022/02/11 11:11:09;;;;;;;4.03;2.47;;;17.30;92.00;;;;;;4971410;28;20049;-62
2022/02/11 11:13:37;;;;;;;3.63;2.42;;;17.10;91.40;;;;;;4973965;28;20043;-61
2022/02/11 11:16:11;;;;;;;4.70;2.60;;;17.30;90.70;;;;;;4972394;28;20055;-62
2022/02/11 11:18:38;;;;;;;4.60;2.75;;;17.30;90.40;;;;;;4973232;28;20042;-61
2022/02/11 11:21:13;;;;;;;6.53;2.78;;;17.20;91.50;;;;;;4962904;28;20516;-62
2022/02/11 11:23:55;;;;;;;3.22;2.20;;;17.20;91.70;;;;;;4964655;28;20924;-62
2022/02/11 11:26:57;;;;;;;3.80;1.92;;;17.30;91.80;;;;;;4964681;28;20113;-62
2022/02/11 11:29:28;;;;;;;7.43;3.67;;;17.20;90.80;;;;;;4963373;28;20066;-62
2022/02/11 11:31:58;;;;;;;4.82;2.67;;;17.20;90.50;;;;;;4963619;28;20043;-62
2022/02/11 11:34:28;;;;;;;9.45;4.70;;;17.30;90.20;;;;;;4962007;28;20035;-61
2022/02/11 11:37:05;;;;;;;6.40;4.53;;;17.40;90.40;;;;;;4971611;28;20134;-61
2022/02/11 11:39:34;;;;;;;4.97;3.60;;;17.30;90.00;;;;;;4973907;28;20069;-61
2022/02/11 11:42:10;;;;;;;5.75;3.17;;;17.40;90.00;;;;;;4973271;28;20035;-61
2022/02/11 11:44:49;;;;;;;13.63;6.30;;;17.50;90.20;;;;;;4964212;28;20125;-61
2022/02/11 11:47:27;;;;;;;6.63;4.07;;;17.60;90.80;;;;;;4972211;28;20501;-61
2022/02/11 11:49:56;;;;;;;6.60;3.10;;;17.60;91.20;;;;;;4967727;28;20488;-61
2022/02/11 11:52:40;;;;;;;7.30;3.03;;;17.60;91.50;;;;;;4970934;28;20035;-61
2022/02/11 11:55:23;;;;;;;4.88;2.95;;;17.40;91.30;;;;;;4972683;28;20039;-61
2022/02/11 11:57:52;;;;;;;6.47;2.88;;;17.50;92.20;;;;;;4966194;28;20054;-61
2022/02/11 12:00:38;;;;;;;5.10;3.13;;;17.30;92.80;;;;;;4962523;28;20651;-62
2022/02/11 12:03:08;;;;;;;6.22;3.35;;;17.20;92.90;;;;;;4968169;28;20050;-61
2022/02/11 12:05:53;;;;;;;6.03;3.15;;;17.30;93.00;;;;;;4971916;28;20477;-61
2022/02/11 12:08:22;;;;;;;8.55;3.97;;;17.30;92.90;;;;;;4971602;28;20046;-61
2022/02/11 12:10:49;;;;;;;7.50;3.95;;;17.30;92.90;;;;;;4972351;28;20043;-61
2022/02/11 12:13:18;;;;;;;7.05;3.00;;;17.30;93.20;;;;;;4973764;28;20513;-61
2022/02/11 12:15:45;;;;;;;6.93;3.00;;;17.20;93.10;;;;;;4956698;28;20117;-62
2022/02/11 12:18:14;;;;;;;8.40;3.15;;;17.30;93.30;;;;;;4971528;28;20145;-62
2022/02/11 12:20:44;;;;;;;6.35;3.75;;;17.30;93.50;;;;;;4972562;28;20121;-62
2022/02/11 12:28:46;;;;;;;4.97;2.90;;;17.40;93.80;;;;;;4969294;28;20046;-62
2022/02/11 12:31:23;;;;;;;4.93;2.88;;;17.30;94.30;;;;;;4973296;28;20110;-61
2022/02/11 12:33:50;;;;;;;7.20;4.28;;;17.40;94.70;;;;;;4966471;28;20043;-61
2022/02/11 12:36:18;;;;;;;4.55;2.85;;;17.40;94.50;;;;;;4973640;28;20050;-61
2022/02/11 12:38:56;;;;;;;9.32;5.10;;;17.30;94.30;;;;;;4956626;28;20046;-61
2022/02/11 12:41:24;;;;;;;5.18;3.20;;;17.20;94.60;;;;;;4970671;28;20556;-61
2022/02/11 12:43:59;;;;;;;8.05;3.35;;;17.00;95.10;;;;;;4955402;28;20047;-61
2022/02/11 12:46:27;;;;;;;5.75;3.13;;;16.80;95.40;;;;;;4955321;28;20097;-61
2022/02/11 12:48:59;;;;;;;5.90;3.75;;;16.90;95.70;;;;;;4955404;28;20047;-61
2022/02/11 12:51:27;;;;;;;5.38;3.63;;;16.90;95.60;;;;;;4968930;28;20094;-61
2022/02/11 12:54:05;;;;;;;7.07;4.40;;;16.90;95.60;;;;;;4957372;28;20039;-61
2022/02/11 12:56:34;;;;;;;6.72;4.82;;;16.90;96.20;;;;;;4974562;28;20047;-61
2022/02/11 12:59:09;;;;;;;5.57;3.88;;;16.90;96.20;;;;;;4948062;29;20047;-61
2022/02/11 13:01:37;;;;;;;6.63;4.05;;;16.70;96.90;;;;;;4947144;28;20055;-61
2022/02/11 13:04:05;;;;;;;6.30;3.40;;;16.60;97.00;;;;;;4962777;28;20482;-61
2022/02/11 13:06:36;;;;;;;6.35;3.20;;;16.60;97.20;;;;;;4963904;28;20094;-61
2022/02/11 13:09:06;;;;;;;6.05;4.18;;;16.40;97.30;;;;;;4955109;28;20051;-62
2022/02/11 13:11:43;;;;;;;5.03;3.72;;;16.40;97.50;;;;;;4957218;28;20075;-62
2022/02/11 13:14:11;;;;;;;5.72;3.33;;;16.30;98.30;;;;;;4969880;28;20494;-60
2022/02/11 13:16:39;;;;;;;5.03;2.90;;;16.30;98.00;;;;;;4940964;28;20086;-60
2022/02/11 13:19:17;;;;;;;3.83;2.40;;;16.40;98.30;;;;;;4962106;28;20138;-60
2022/02/11 13:21:45;;;;;;;7.93;3.45;;;16.40;98.40;;;;;;4974469;28;20042;-61
2022/02/11 13:24:13;;;;;;;7.05;3.28;;;16.40;98.50;;;;;;4974419;28;20494;-61
2022/02/11 13:26:41;;;;;;;4.22;2.75;;;16.40;98.40;;;;;;4970265;28;20078;-60
2022/02/11 13:29:13;;;;;;;4.25;3.05;;;16.30;98.60;;;;;;4954945;28;20795;-60
2022/02/11 13:31:59;;;;;;;4.85;2.95;;;16.30;98.60;;;;;;4969790;28;20410;-60
2022/02/11 13:34:28;;;;;;;6.82;3.42;;;16.30;98.60;;;;;;4958254;28;20051;-61
2022/02/11 13:37:04;;;;;;;5.80;2.92;;;16.40;98.60;;;;;;4967737;28;20169;-61
2022/02/11 13:39:32;;;;;;;5.45;3.28;;;16.30;98.50;;;;;;4973815;28;20047;-61
2022/02/11 13:42:13;;;;;;;5.85;3.53;;;16.30;98.80;;;;;;4977770;28;20050;-61
2022/02/11 13:45:00;;;;;;;4.97;2.40;;;16.30;98.90;;;;;;4972355;28;20039;-60
2022/02/11 13:47:28;;;;;;;7.57;3.70;;;16.10;98.90;;;;;;4957332;29;20043;-60
2022/02/11 13:50:06;;;;;;;6.43;3.15;;;16.20;99.10;;;;;;4958460;29;20047;-60
2022/02/11 13:53:04;;;;;;;4.35;3.03;;;16.00;99.20;;;;;;4957189;28;20062;-60
2022/02/11 13:55:34;;;;;;;7.60;4.18;;;16.00;99.40;;;;;;4958329;28;20146;-60
2022/02/11 13:58:18;;;;;;;8.55;3.58;;;15.90;99.50;;;;;;4958303;28;20219;-60
2022/02/11 14:00:46;;;;;;;6.55;2.60;;;15.90;99.40;;;;;;4973008;28;20063;-60
2022/02/11 14:03:26;;;;;;;5.30;2.55;;;15.90;99.30;;;;;;4958233;28;20389;-60
2022/02/11 14:05:56;;;;;;;6.47;2.97;;;15.80;99.30;;;;;;4957986;28;20058;-60
2022/02/11 14:08:39;;;;;;;3.75;2.58;;;15.80;99.50;;;;;;4973113;28;20137;-59
2022/02/11 14:11:12;;;;;;;9.60;3.78;;;15.80;99.40;;;;;;4957894;28;20051;-60
2022/02/11 14:13:40;;;;;;;6.40;3.17;;;15.70;99.50;;;;;;4957963;28;20155;-60
2022/02/11 14:16:09;;;;;;;5.07;3.00;;;15.70;99.30;;;;;;4957790;28;20134;-60
2022/02/11 14:18:43;;;;;;;6.45;2.65;;;15.70;99.30;;;;;;4957903;29;20040;-60
2022/02/11 14:21:21;;;;;;;3.88;2.50;;;15.70;99.30;;;;;;4956956;29;20047;-60
2022/02/11 14:23:49;;;;;;;4.97;2.20;;;15.70;99.10;;;;;;4957698;28;20039;-60
2022/02/11 14:26:16;;;;;;;6.75;2.90;;;15.70;99.30;;;;;;4979981;28;20061;-60
2022/02/11 14:28:44;;;;;;;5.18;2.90;;;15.70;99.20;;;;;;4964915;28;20048;-60
2022/02/11 14:31:12;;;;;;;3.90;2.65;;;15.70;99.00;;;;;;4978675;28;20052;-60
2022/02/11 14:33:40;;;;;;;5.25;3.08;;;15.80;98.80;;;;;;4965004;28;20141;-59
2022/02/11 14:36:07;;;;;;;4.80;3.80;;;15.70;98.50;;;;;;4955649;29;20047;-60
2022/02/11 14:38:35;;;;;;;5.20;3.08;;;15.70;98.50;;;;;;4972498;28;20068;-60
2022/02/11 14:43:49;;;;;;;13.38;6.85;;;15.70;98.70;;;;;;4957752;29;20047;-60
2022/02/11 14:46:17;;;;;;;10.52;5.03;;;15.70;98.30;;;;;;4957309;28;20043;-60
2022/02/11 14:48:45;;;;;;;7.70;3.55;;;15.70;98.60;;;;;;4972266;28;20043;-60
2022/02/11 14:51:13;;;;;;;4.63;2.55;;;15.60;99.10;;;;;;4954969;28;20057;-60
2022/02/11 14:53:40;;;;;;;4.53;2.83;;;15.50;99.00;;;;;;4940307;29;20055;-60
2022/02/11 14:56:08;;;;;;;5.07;3.30;;;15.50;99.30;;;;;;4956364;29;20067;-60
2022/02/11 14:58:37;;;;;;;7.40;4.53;;;15.50;99.40;;;;;;4960046;28;20207;-60
2022/02/11 15:01:07;;;;;;;7.93;3.92;;;15.50;99.50;;;;;;4959687;28;20053;-61
2022/02/11 15:03:34;;;;;;;5.07;3.33;;;15.40;99.80;;;;;;4954689;28;20525;-60
2022/02/11 15:06:02;;;;;;;5.75;3.38;;;15.40;99.90;;;;;;4972015;28;20051;-60
2022/02/11 15:08:29;;;;;;;4.50;3.33;;;15.40;99.90;;;;;;4955538;28;20046;-61
2022/02/11 15:10:57;;;;;;;6.85;3.83;;;15.40;99.90;;;;;;4957254;28;20446;-60
2022/02/11 15:13:25;;;;;;;8.38;5.72;;;15.20;99.90;;;;;;4957033;28;20046;-61
2022/02/11 15:15:53;;;;;;;6.32;2.95;;;15.20;99.90;;;;;;4957429;28;20082;-61
2022/02/11 15:18:21;;;;;;;8.80;5.15;;;15.10;99.90;;;;;;4955754;29;20052;-61
2022/02/11 15:20:48;;;;;;;5.30;3.90;;;15.10;99.90;;;;;;4956754;28;20054;-61
2022/02/11 15:23:17;;;;;;;4.97;3.38;;;15.00;99.90;;;;;;4972158;28;20114;-61
2022/02/11 15:25:45;;;;;;;6.40;3.40;;;14.90;99.90;;;;;;4971536;28;20372;-61
2022/02/11 15:28:13;;;;;;;5.90;3.42;;;14.80;99.90;;;;;;4955627;29;20137;-60
2022/02/11 15:30:41;;;;;;;3.97;2.85;;;14.80;99.90;;;;;;4956712;28;20044;-61
2022/02/11 15:33:08;;;;;;;6.65;4.60;;;14.70;99.90;;;;;;4955277;29;20043;-61
2022/02/11 15:35:36;;;;;;;9.57;4.35;;;14.70;99.90;;;;;;4955419;28;20044;-61
2022/02/11 15:38:05;;;;;;;5.60;3.42;;;14.60;99.90;;;;;;4956727;29;20134;-61
2022/02/11 15:40:33;;;;;;;8.52;4.40;;;14.60;99.90;;;;;;4955548;29;20058;-61
2022/02/11 15:43:01;;;;;;;11.82;6.03;;;14.50;99.90;;;;;;4956502;28;20094;-63
2022/02/11 15:45:29;;;;;;;12.38;7.03;;;14.50;99.90;;;;;;4956423;29;20049;-60
2022/02/11 15:47:57;;;;;;;17.55;8.55;;;14.50;99.90;;;;;;4955029;29;20048;-60
2022/02/11 15:50:25;;;;;;;12.20;5.95;;;14.60;99.90;;;;;;4956116;28;20629;-59
2022/02/11 15:52:53;;;;;;;21.55;6.40;;;14.50;99.90;;;;;;4955367;28;20051;-60
2022/02/11 15:55:22;;;;;;;15.02;5.72;;;14.40;99.90;;;;;;4955103;29;20090;-60
2022/02/11 15:57:49;;;;;;;17.85;8.32;;;14.40;99.90;;;;;;4956497;28;20556;-60
2022/02/11 16:00:17;;;;;;;11.45;8.23;;;14.40;99.90;;;;;;4955924;28;20051;-61
2022/02/11 16:02:45;;;;;;;10.73;7.28;;;14.40;99.90;;;;;;4955809;28;20094;-62
2022/02/11 16:05:13;;;;;;;10.55;7.03;;;14.30;99.90;;;;;;4939330;29;20108;-60
2022/02/11 16:07:41;;;;;;;8.15;6.25;;;14.20;99.90;;;;;;4971112;28;20059;-61
2022/02/11 16:10:10;;;;;;;10.05;5.90;;;14.00;99.90;;;;;;4955985;28;20039;-61
2022/02/11 16:12:38;;;;;;;8.88;5.65;;;14.00;99.90;;;;;;4954733;29;20044;-60
2022/02/11 16:15:10;;;;;;;19.33;6.30;;;13.90;99.90;;;;;;4954745;29;20050;-60
2022/02/11 16:17:59;;;;;;;11.27;7.10;;;13.80;99.90;;;;;;4955791;28;20098;-60
2022/02/11 16:20:28;;;;;;;9.68;6.82;;;13.70;99.90;;;;;;4954668;29;20402;-61
2022/02/11 16:22:56;;;;;;;17.52;9.43;;;13.60;99.90;;;;;;4955916;29;20517;-62
2022/02/11 16:25:24;;;;;;;14.50;10.23;;;13.50;99.90;;;;;;4970824;28;20094;-60
2022/02/11 16:27:53;;;;;;;20.92;11.35;;;13.50;99.90;;;;;;4955625;28;20132;-60
2022/02/11 16:30:21;;;;;;;26.27;13.63;;;13.40;99.90;;;;;;4938272;29;20142;-60
2022/02/11 16:32:49;;;;;;;17.88;13.68;;;13.40;99.90;;;;;;4954676;28;20051;-61
2022/02/11 16:35:19;;;;;;;23.85;17.58;;;13.40;99.90;;;;;;4955879;28;20045;-61
2022/02/11 16:37:47;;;;;;;29.83;16.95;;;13.40;99.90;;;;;;4938856;29;20062;-62
2022/02/11 16:40:14;;;;;;;35.22;19.83;;;13.40;99.90;;;;;;4954410;29;20053;-60
2022/02/11 16:42:42;;;;;;;32.83;19.40;;;13.20;99.90;;;;;;4955627;29;20126;-59
2022/02/11 16:45:11;;;;;;;31.83;19.83;;;13.20;99.90;;;;;;4954560;29;20079;-60
2022/02/11 16:47:40;;;;;;;31.13;18.83;;;13.10;99.90;;;;;;4954298;29;20051;-59
2022/02/11 16:50:09;;;;;;;28.90;18.58;;;13.10;99.90;;;;;;4955491;28;20047;-59
2022/02/11 16:52:38;;;;;;;38.40;22.83;;;13.20;99.90;;;;;;4955406;29;20050;-59
2022/02/11 16:55:08;;;;;;;35.38;22.35;;;13.20;99.90;;;;;;4955290;29;20046;-58
2022/02/11 16:57:36;;;;;;;33.05;19.92;;;13.20;99.90;;;;;;4955512;29;20043;-60